createdAt,value
2022-10-02T00:00:52.962Z,1.80
2022-10-02T00:02:25.084Z,1.98
2022-10-02T00:03:31.161Z,1.90
2022-10-02T00:04:41.516Z,1.80
2022-10-02T00:05:51.689Z,1.65
2022-10-02T00:06:57.955Z,1.77
2022-10-02T00:08:06.901Z,1.70
2022-10-02T00:09:15.779Z,1.90
2022-10-02T00:10:44.752Z,1.70
2022-10-02T00:11:50.577Z,1.90
2022-10-02T00:12:58.451Z,1.48
2022-10-02T00:14:03.804Z,1.80
2022-10-02T00:15:17.406Z,1.98
2022-10-02T00:16:24.565Z,1.60
2022-10-02T00:17:34.375Z,1.73
2022-10-02T00:18:38.028Z,1.70
2022-10-02T00:19:39.461Z,1.75
2022-10-02T00:21:03.358Z,1.90
2022-10-02T00:22:09.079Z,2.00
2022-10-02T00:23:19.597Z,1.80
2022-10-02T00:24:27.184Z,2.30
2022-10-02T00:25:53.318Z,2.10
2022-10-02T00:27:01.201Z,1.83
2022-10-02T00:28:23.158Z,1.83
2022-10-02T00:29:34.550Z,1.80
2022-10-02T00:31:06.248Z,1.77
2022-10-02T00:32:36.677Z,1.95
2022-10-02T00:34:03.196Z,1.63
2022-10-02T00:35:22.825Z,1.98
2022-10-02T00:36:35.545Z,2.00
2022-10-02T00:38:06.127Z,1.65
2022-10-02T00:39:25.523Z,3.42
2022-10-02T00:40:59.509Z,2.00
2022-10-02T00:42:28.787Z,2.25
2022-10-02T00:43:57.170Z,2.08
2022-10-02T00:45:01.593Z,1.80
2022-10-02T00:46:09.162Z,2.10
2022-10-02T00:47:19.831Z,2.33
2022-10-02T00:48:27.332Z,2.00
2022-10-02T00:49:47.482Z,2.30
2022-10-02T00:51:03.527Z,1.90
2022-10-02T00:52:25.966Z,2.35
2022-10-02T00:53:56.599Z,2.15
2022-10-02T00:55:04.030Z,1.98
2022-10-02T00:56:27.643Z,1.85
2022-10-02T00:58:16.845Z,2.17
2022-10-02T00:59:40.971Z,2.42
2022-10-02T01:00:52.298Z,2.17
2022-10-02T01:02:04.368Z,2.42
2022-10-02T01:03:21.552Z,2.05
2022-10-02T01:04:27.971Z,2.00
2022-10-02T01:05:30.548Z,2.28
2022-10-02T01:06:32.631Z,2.10
2022-10-02T01:07:38.990Z,1.88
2022-10-02T01:08:41.080Z,2.13
2022-10-02T01:09:42.903Z,2.00
2022-10-02T01:10:45.689Z,2.10
2022-10-02T01:11:49.086Z,2.25
2022-10-02T01:12:50.528Z,2.80
2022-10-02T01:13:52.168Z,2.60
2022-10-02T01:14:53.615Z,2.33
2022-10-02T01:15:57.392Z,2.28
2022-10-02T01:16:58.892Z,2.35
2022-10-02T01:18:02.205Z,2.20
2022-10-02T01:19:03.804Z,1.92
2022-10-02T01:20:07.175Z,1.90
2022-10-02T01:21:15.228Z,2.03
2022-10-02T01:22:41.853Z,2.35
2022-10-02T01:23:57.324Z,1.80
2022-10-02T01:25:02.049Z,1.88
2022-10-02T01:26:03.945Z,2.10
2022-10-02T01:27:05.399Z,2.13
2022-10-02T01:28:07.011Z,1.85
2022-10-02T01:29:08.865Z,1.70
2022-10-02T01:30:14.762Z,2.05
2022-10-02T01:31:17.435Z,1.65
2022-10-02T01:32:19.404Z,2.13
2022-10-02T01:33:23.092Z,2.10
2022-10-02T01:34:24.594Z,1.70
2022-10-02T01:35:31.951Z,1.60
2022-10-02T01:36:35.878Z,1.80
2022-10-02T01:37:41.006Z,2.13
2022-10-02T01:38:44.272Z,1.80
2022-10-02T01:39:45.878Z,2.17
2022-10-02T01:40:47.689Z,2.10
2022-10-02T01:41:49.151Z,2.03
2022-10-02T01:42:50.985Z,2.10
2022-10-02T01:43:56.160Z,2.55
2022-10-02T01:44:58.331Z,2.05
2022-10-02T01:46:23.102Z,2.00
2022-10-02T01:47:44.246Z,2.10
2022-10-02T01:48:53.066Z,1.92
2022-10-02T01:50:01.340Z,2.30
2022-10-02T01:51:39.152Z,2.17
2022-10-02T01:53:07.896Z,2.30
2022-10-02T01:54:33.265Z,2.53
2022-10-02T01:56:17.348Z,2.33
2022-10-02T01:57:21.474Z,2.47
2022-10-02T01:58:56.540Z,3.10
2022-10-02T02:00:08.086Z,3.80
2022-10-02T02:01:24.929Z,2.42
2022-10-02T02:02:30.327Z,2.60
2022-10-02T02:03:44.486Z,2.72
2022-10-02T02:04:56.949Z,2.28
2022-10-02T02:06:09.858Z,2.40
2022-10-02T02:07:27.069Z,2.47
2022-10-02T02:08:43.979Z,2.20
2022-10-02T02:10:05.071Z,2.20
2022-10-02T02:11:21.781Z,2.00
2022-10-02T02:12:38.398Z,2.38
2022-10-02T02:13:58.356Z,1.98
2022-10-02T02:15:06.540Z,2.10
2022-10-02T02:16:08.110Z,2.10
2022-10-02T02:17:17.787Z,2.03
2022-10-02T02:18:43.446Z,2.20
2022-10-02T02:20:07.768Z,2.17
2022-10-02T02:21:17.038Z,2.40
2022-10-02T02:22:44.286Z,2.15
2022-10-02T02:23:47.287Z,2.15
2022-10-02T02:26:06.880Z,1.88
2022-10-02T02:27:15.081Z,1.92
2022-10-02T02:28:20.971Z,2.40
2022-10-02T02:29:24.657Z,2.55
2022-10-02T02:30:27.669Z,2.25
2022-10-02T02:31:35.567Z,2.20
2022-10-02T02:32:43.948Z,2.40
2022-10-02T02:33:52.914Z,2.15
2022-10-02T02:35:04.147Z,2.63
2022-10-02T02:36:14.534Z,2.25
2022-10-02T02:37:19.256Z,2.13
2022-10-02T02:38:28.669Z,2.42
2022-10-02T02:39:40.497Z,2.40
2022-10-02T02:40:45.457Z,2.13
2022-10-02T02:41:56.187Z,2.13
2022-10-02T02:43:06.111Z,2.00
2022-10-02T02:44:30.631Z,7.10
2022-10-02T02:45:38.002Z,13.32
2022-10-02T02:47:06.834Z,18.40
2022-10-02T02:48:39.434Z,16.45
2022-10-02T02:49:56.050Z,5.10
2022-10-02T02:51:10.575Z,3.08
2022-10-02T02:52:19.906Z,2.40
2022-10-02T02:53:30.383Z,2.30
2022-10-02T02:54:40.002Z,2.20
2022-10-02T02:55:58.549Z,2.20
2022-10-02T02:57:02.527Z,1.88
2022-10-02T02:58:23.786Z,2.13
2022-10-02T02:59:29.826Z,2.42
2022-10-02T03:00:31.490Z,2.60
2022-10-02T03:01:33.404Z,2.60
2022-10-02T03:02:35.056Z,3.08
2022-10-02T03:03:36.532Z,2.50
2022-10-02T03:04:37.936Z,2.70
2022-10-02T03:05:44.384Z,2.50
2022-10-02T03:06:49.622Z,2.50
2022-10-02T03:07:55.134Z,2.92
2022-10-02T03:08:56.584Z,2.42
2022-10-02T03:10:10.013Z,2.55
2022-10-02T03:11:19.496Z,2.63
2022-10-02T03:12:34.128Z,2.53
2022-10-02T03:14:05.156Z,2.50
2022-10-02T03:15:36.712Z,2.72
2022-10-02T03:16:53.774Z,2.42
2022-10-02T03:18:08.357Z,2.20
2022-10-02T03:19:23.178Z,3.05
2022-10-02T03:20:42.799Z,2.83
2022-10-02T03:22:13.384Z,2.50
2022-10-02T03:23:19.768Z,2.45
2022-10-02T03:24:45.262Z,2.42
2022-10-02T03:25:59.296Z,2.47
2022-10-02T03:27:25.370Z,2.67
2022-10-02T03:28:59.456Z,2.47
2022-10-02T03:30:08.546Z,2.80
2022-10-02T03:32:16.442Z,2.22
2022-10-02T03:33:17.935Z,2.30
2022-10-02T03:34:19.627Z,3.25
2022-10-02T03:35:23.654Z,2.70
2022-10-02T03:36:25.883Z,2.88
2022-10-02T03:37:28.564Z,2.55
2022-10-02T03:38:31.624Z,2.58
2022-10-02T03:39:33.064Z,2.72
2022-10-02T03:40:34.502Z,2.65
2022-10-02T03:41:36.558Z,2.60
2022-10-02T03:42:38.790Z,2.55
2022-10-02T03:43:40.377Z,3.00
2022-10-02T03:44:43.164Z,3.20
2022-10-02T03:45:51.257Z,2.63
2022-10-02T03:46:53.670Z,3.00
2022-10-02T03:47:55.268Z,2.80
2022-10-02T03:48:56.728Z,2.72
2022-10-02T03:49:58.612Z,2.63
2022-10-02T03:51:00.108Z,3.20
2022-10-02T03:52:02.319Z,2.55
2022-10-02T03:53:13.465Z,3.00
2022-10-02T03:54:20.852Z,2.72
2022-10-02T03:55:38.922Z,2.85
2022-10-02T03:56:48.184Z,2.85
2022-10-02T03:57:49.795Z,2.53
2022-10-02T03:58:55.071Z,2.75
2022-10-02T03:59:59.524Z,2.65
2022-10-02T04:01:19.752Z,2.72
2022-10-02T04:02:34.621Z,2.50
2022-10-02T04:03:49.919Z,2.80
2022-10-02T04:05:00.080Z,2.80
2022-10-02T04:06:11.448Z,2.47
2022-10-02T04:07:26.143Z,2.50
2022-10-02T04:08:34.533Z,2.60
2022-10-02T04:09:51.946Z,2.88
2022-10-02T04:11:12.949Z,2.63
2022-10-02T04:12:23.468Z,2.67
2022-10-02T04:13:32.134Z,2.78
2022-10-02T04:14:43.084Z,2.70
2022-10-02T04:15:57.860Z,2.50
2022-10-02T04:17:10.852Z,2.80
2022-10-02T04:18:39.281Z,2.75
2022-10-02T04:20:14.256Z,2.40
2022-10-02T04:21:23.397Z,2.78
2022-10-02T04:22:40.052Z,2.50
2022-10-02T04:23:52.111Z,2.67
2022-10-02T04:25:10.435Z,2.70
2022-10-02T04:26:21.002Z,2.28
2022-10-02T04:27:40.110Z,2.50
2022-10-02T04:28:52.615Z,2.95
2022-10-02T04:30:04.934Z,2.45
2022-10-02T04:31:13.408Z,2.42
2022-10-02T04:32:21.434Z,2.67
2022-10-02T04:33:24.882Z,2.33
2022-10-02T04:34:28.223Z,2.45
2022-10-02T04:35:36.054Z,2.30
2022-10-02T04:36:46.054Z,2.20
2022-10-02T04:37:56.634Z,2.55
2022-10-02T04:39:03.507Z,2.33
2022-10-02T04:40:26.874Z,2.40
2022-10-02T04:41:43.139Z,2.33
2022-10-02T04:43:23.752Z,2.40
2022-10-02T04:44:51.464Z,2.30
2022-10-02T04:46:08.534Z,2.50
2022-10-02T04:47:46.631Z,2.17
2022-10-02T04:49:18.794Z,1.90
2022-10-02T04:50:33.922Z,2.20
2022-10-02T04:52:14.212Z,2.15
2022-10-02T04:53:29.377Z,2.25
2022-10-02T04:56:11.437Z,2.50
2022-10-02T04:57:27.886Z,2.42
2022-10-02T04:58:49.733Z,2.25
2022-10-02T05:00:13.724Z,2.50
2022-10-02T05:01:52.902Z,2.30
2022-10-02T05:03:11.002Z,1.95
2022-10-02T05:04:18.103Z,2.28
2022-10-02T05:05:29.551Z,2.05
2022-10-02T05:06:46.291Z,1.92
2022-10-02T05:08:02.980Z,1.95
2022-10-02T05:09:13.193Z,2.30
2022-10-02T05:10:35.713Z,2.10
2022-10-02T05:12:15.526Z,1.98
2022-10-02T05:15:35.252Z,2.10
2022-10-02T05:16:58.958Z,2.03
2022-10-02T05:18:09.327Z,1.90
2022-10-02T05:19:36.898Z,1.80
2022-10-02T05:21:17.915Z,2.30
2022-10-02T05:22:54.920Z,2.15
2022-10-02T05:24:02.370Z,2.13
2022-10-02T05:25:15.950Z,2.08
2022-10-02T05:26:44.218Z,2.45
2022-10-02T05:28:02.370Z,1.92
2022-10-02T05:29:42.139Z,2.00
2022-10-02T05:32:17.634Z,1.90
2022-10-02T05:33:57.515Z,2.10
2022-10-02T05:35:37.451Z,2.03
2022-10-02T05:36:49.679Z,2.20
2022-10-02T05:38:19.156Z,1.77
2022-10-02T05:39:43.836Z,1.90
2022-10-02T05:40:56.839Z,2.33
2022-10-02T05:41:58.554Z,2.60
2022-10-02T05:43:20.777Z,2.25
2022-10-02T05:44:27.138Z,1.90
2022-10-02T05:45:37.440Z,2.33
2022-10-02T05:46:52.199Z,2.25
2022-10-02T05:48:02.676Z,2.35
2022-10-02T05:49:14.199Z,2.42
2022-10-02T05:50:18.615Z,2.45
2022-10-02T05:51:37.145Z,2.08
2022-10-02T05:52:57.909Z,2.28
2022-10-02T05:54:07.169Z,2.80
2022-10-02T05:55:37.877Z,2.25
2022-10-02T05:56:46.231Z,1.95
2022-10-02T05:58:15.003Z,2.10
2022-10-02T05:59:25.747Z,2.15
2022-10-02T06:00:40.472Z,2.00
2022-10-02T06:01:46.841Z,2.25
2022-10-02T06:03:08.231Z,2.30
2022-10-02T06:06:42.154Z,1.92
2022-10-02T06:07:47.531Z,1.90
2022-10-02T06:09:04.442Z,2.20
2022-10-02T06:10:22.081Z,2.47
2022-10-02T06:11:31.424Z,2.20
2022-10-02T06:12:42.519Z,2.28
2022-10-02T06:13:49.921Z,2.25
2022-10-02T06:14:57.850Z,1.90
2022-10-02T06:16:19.238Z,2.28
2022-10-02T06:17:31.323Z,2.50
2022-10-02T06:18:36.547Z,2.20
2022-10-02T06:19:52.219Z,2.30
2022-10-02T06:20:59.413Z,2.10
2022-10-02T06:22:13.868Z,2.30
2022-10-02T06:23:22.494Z,1.90
2022-10-02T06:24:31.056Z,2.42
2022-10-02T06:25:40.134Z,2.58
2022-10-02T06:28:09.926Z,1.90
2022-10-02T06:29:27.056Z,2.55
2022-10-02T06:30:32.905Z,2.13
2022-10-02T06:31:42.310Z,2.60
2022-10-02T06:32:55.917Z,2.03
2022-10-02T06:33:57.906Z,2.17
2022-10-02T06:34:59.349Z,2.10
2022-10-02T06:36:22.903Z,2.20
2022-10-02T06:37:24.598Z,2.13
2022-10-02T06:38:55.480Z,2.50
2022-10-02T06:40:34.329Z,2.20
2022-10-02T06:41:47.656Z,2.28
2022-10-02T06:43:27.192Z,2.20
2022-10-02T06:44:35.520Z,2.38
2022-10-02T06:45:48.637Z,2.13
2022-10-02T06:47:21.757Z,2.20
2022-10-02T06:48:53.029Z,2.83
2022-10-02T06:50:04.917Z,2.50
2022-10-02T06:51:29.360Z,2.38
2022-10-02T06:52:54.937Z,2.58
2022-10-02T06:54:34.167Z,2.20
2022-10-02T06:55:52.103Z,2.33
2022-10-02T06:57:20.010Z,2.50
2022-10-02T06:58:47.188Z,3.15
2022-10-02T07:00:12.277Z,2.30
2022-10-02T07:01:35.391Z,2.63
2022-10-02T07:02:55.101Z,2.63
2022-10-02T07:04:26.051Z,1.98
2022-10-02T07:05:49.660Z,2.42
2022-10-02T07:07:06.939Z,2.22
2022-10-02T07:08:29.908Z,2.35
2022-10-02T07:09:51.586Z,2.17
2022-10-02T07:11:08.322Z,2.13
2022-10-02T07:12:31.317Z,2.00
2022-10-02T07:14:07.074Z,2.08
2022-10-02T07:15:09.251Z,2.10
2022-10-02T07:16:50.241Z,2.03
2022-10-02T07:18:19.868Z,2.17
2022-10-02T07:19:33.259Z,1.95
2022-10-02T07:20:39.699Z,2.00
2022-10-02T07:21:50.675Z,2.30
2022-10-02T07:23:13.520Z,2.53
2022-10-02T07:24:39.983Z,2.30
2022-10-02T07:25:47.213Z,2.13
2022-10-02T07:26:59.607Z,2.28
2022-10-02T07:28:39.750Z,2.63
2022-10-02T07:29:52.967Z,2.20
2022-10-02T07:31:01.472Z,1.95
2022-10-02T07:32:41.556Z,2.15
2022-10-02T07:34:17.236Z,2.03
2022-10-02T07:35:28.285Z,1.95
2022-10-02T07:36:46.807Z,2.10
2022-10-02T07:38:12.615Z,2.45
2022-10-02T07:39:52.416Z,1.98
2022-10-02T07:41:24.427Z,2.05
2022-10-02T07:42:43.915Z,2.13
2022-10-02T07:44:22.386Z,2.00
2022-10-02T07:45:26.956Z,2.03
2022-10-02T07:46:44.374Z,2.30
2022-10-02T07:48:33.327Z,2.10
2022-10-02T07:49:50.751Z,2.42
2022-10-02T07:51:27.124Z,2.10
2022-10-02T07:52:47.102Z,1.92
2022-10-02T07:53:56.356Z,1.90
2022-10-02T07:55:09.636Z,2.60
2022-10-02T07:56:20.125Z,2.25
2022-10-02T07:57:45.905Z,2.20
2022-10-02T07:58:54.802Z,2.30
2022-10-02T08:00:20.688Z,1.92
2022-10-02T08:01:30.748Z,1.77
2022-10-02T08:02:46.102Z,1.90
2022-10-02T08:03:59.667Z,2.08
2022-10-02T08:05:05.992Z,1.95
2022-10-02T08:06:08.553Z,2.35
2022-10-02T08:07:10.709Z,1.92
2022-10-02T08:08:28.626Z,2.03
2022-10-02T08:09:48.113Z,1.88
2022-10-02T08:10:57.685Z,1.98
2022-10-02T08:12:08.329Z,1.80
2022-10-02T08:13:28.361Z,2.03
2022-10-02T08:14:41.783Z,1.70
2022-10-02T08:15:47.202Z,1.70
2022-10-02T08:16:55.041Z,2.00
2022-10-02T08:18:11.004Z,1.80
2022-10-02T08:19:29.946Z,1.50
2022-10-02T08:20:36.474Z,1.70
2022-10-02T08:22:12.924Z,1.60
2022-10-02T08:23:23.044Z,1.60
2022-10-02T08:24:36.809Z,1.73
2022-10-02T08:25:49.645Z,1.63
2022-10-02T08:27:13.186Z,1.80
2022-10-02T08:28:31.609Z,1.83
2022-10-02T08:29:33.030Z,2.35
2022-10-02T08:30:34.650Z,1.90
2022-10-02T08:31:36.580Z,1.70
2022-10-02T08:32:38.602Z,1.92
2022-10-02T08:33:40.350Z,1.88
2022-10-02T08:34:42.529Z,1.70
2022-10-02T08:36:13.177Z,1.83
2022-10-02T08:37:21.295Z,1.80
2022-10-02T08:38:39.391Z,1.80
2022-10-02T08:39:44.184Z,1.40
2022-10-02T08:41:05.045Z,1.40
2022-10-02T08:43:05.197Z,1.65
2022-10-02T08:44:24.877Z,1.70
2022-10-02T08:45:51.359Z,1.60
2022-10-02T08:47:23.558Z,1.65
2022-10-02T08:48:56.248Z,1.58
2022-10-02T08:50:34.899Z,1.50
2022-10-02T08:51:58.498Z,1.45
2022-10-02T08:53:37.423Z,1.70
2022-10-02T08:55:00.673Z,1.90
2022-10-02T08:56:19.811Z,1.63
2022-10-02T08:57:52.811Z,1.75
2022-10-02T08:59:19.081Z,1.55
2022-10-02T09:00:57.857Z,1.80
2022-10-02T09:02:14.239Z,1.70
2022-10-02T09:03:45.845Z,1.70
2022-10-02T09:05:09.789Z,1.63
2022-10-02T09:06:30.549Z,1.60
2022-10-02T09:08:08.790Z,2.15
2022-10-02T09:09:28.494Z,1.80
2022-10-02T09:10:55.651Z,2.00
2022-10-02T09:12:06.325Z,2.00
2022-10-02T09:13:13.346Z,2.83
2022-10-02T09:14:34.729Z,1.92
2022-10-02T09:16:09.540Z,2.33
2022-10-02T09:17:30.985Z,2.15
2022-10-02T09:20:04.329Z,2.00
2022-10-02T09:21:50.881Z,2.13
2022-10-02T09:23:17.282Z,1.95
2022-10-02T09:25:01.719Z,2.20
2022-10-02T09:26:36.355Z,2.10
2022-10-02T09:28:06.270Z,2.53
2022-10-02T09:29:35.036Z,2.25
2022-10-02T09:30:57.568Z,2.20
2022-10-02T09:32:11.905Z,2.20
2022-10-02T09:33:22.090Z,2.72
2022-10-02T09:34:56.166Z,2.50
2022-10-02T09:36:24.732Z,2.10
2022-10-02T09:38:11.403Z,2.47
2022-10-02T09:39:31.047Z,2.45
2022-10-02T09:40:54.729Z,2.08
2022-10-02T09:42:21.206Z,2.78
2022-10-02T09:43:51.919Z,2.22
2022-10-02T09:45:19.080Z,1.92
2022-10-02T09:46:31.183Z,2.17
2022-10-02T09:48:23.007Z,2.10
2022-10-02T09:49:46.121Z,2.00
2022-10-02T09:51:09.468Z,2.10
2022-10-02T09:52:30.610Z,2.10
2022-10-02T09:53:47.274Z,1.90
2022-10-02T09:54:58.020Z,1.80
2022-10-02T09:56:18.431Z,2.22
2022-10-02T09:57:49.173Z,1.92
2022-10-02T09:59:12.431Z,1.70
2022-10-02T10:00:19.881Z,2.35
2022-10-02T10:02:05.878Z,1.77
2022-10-02T10:03:28.893Z,1.92
2022-10-02T10:05:00.940Z,2.13
2022-10-02T10:06:22.510Z,2.10
2022-10-02T10:07:59.012Z,1.90
2022-10-02T10:09:49.813Z,1.80
2022-10-02T10:11:10.607Z,1.70
2022-10-02T10:12:43.373Z,1.90
2022-10-02T10:13:47.850Z,2.08
2022-10-02T10:14:55.190Z,2.03
2022-10-02T10:16:33.268Z,1.85
2022-10-02T10:18:13.696Z,1.80
2022-10-02T10:19:52.768Z,1.95
2022-10-02T10:21:20.579Z,1.95
2022-10-02T10:22:47.091Z,1.73
2022-10-02T10:24:26.452Z,1.85
2022-10-02T10:25:51.388Z,1.98
2022-10-02T10:27:19.526Z,2.20
2022-10-02T10:28:53.355Z,2.38
2022-10-02T10:30:26.579Z,2.25
2022-10-02T10:32:04.042Z,2.65
2022-10-02T10:33:34.537Z,1.90
2022-10-02T10:34:49.624Z,1.98
2022-10-02T10:36:29.573Z,2.25
2022-10-02T10:38:11.946Z,2.40
2022-10-02T10:39:38.272Z,2.10
2022-10-02T10:40:58.001Z,2.00
2022-10-02T10:43:07.038Z,2.25
2022-10-02T10:44:22.252Z,2.47
2022-10-02T10:45:59.994Z,2.50
2022-10-02T10:47:16.027Z,2.35
2022-10-02T10:48:33.134Z,2.55
2022-10-02T10:50:03.248Z,2.40
2022-10-02T10:51:30.529Z,2.22
2022-10-02T10:52:54.391Z,2.30
2022-10-02T10:54:17.366Z,2.10
2022-10-02T10:55:33.178Z,2.50
2022-10-02T10:56:39.346Z,2.38
2022-10-02T10:57:43.946Z,8.77
2022-10-02T10:59:25.316Z,8.38
2022-10-02T11:00:49.055Z,2.92
2022-10-02T11:02:20.606Z,2.42
2022-10-02T11:03:41.425Z,2.47
2022-10-02T11:04:58.448Z,2.58
2022-10-02T11:06:22.298Z,2.20
2022-10-02T11:07:35.438Z,2.47
2022-10-02T11:08:45.664Z,2.40
2022-10-02T11:10:11.248Z,2.28
2022-10-02T11:11:27.868Z,2.20
2022-10-02T11:12:54.013Z,2.70
2022-10-02T11:14:19.849Z,2.20
2022-10-02T11:15:41.057Z,2.20
2022-10-02T11:17:11.323Z,2.50
2022-10-02T11:18:28.788Z,2.08
2022-10-02T11:19:54.744Z,2.00
2022-10-02T11:21:10.672Z,1.88
2022-10-02T11:22:46.898Z,2.10
2022-10-02T11:23:57.335Z,2.10
2022-10-02T11:25:14.097Z,2.22
2022-10-02T11:26:45.025Z,2.05
2022-10-02T11:28:05.299Z,2.00
2022-10-02T11:29:25.728Z,1.98
2022-10-02T11:30:41.892Z,2.35
2022-10-02T11:32:28.320Z,2.50
2022-10-02T11:33:57.263Z,2.25
2022-10-02T11:35:10.587Z,2.20
2022-10-02T11:36:21.255Z,2.20
2022-10-02T11:37:53.548Z,2.42
2022-10-02T11:39:06.754Z,2.33
2022-10-02T11:40:30.072Z,2.10
2022-10-02T11:42:05.573Z,5.32
2022-10-02T11:43:44.043Z,2.60
2022-10-02T11:44:57.804Z,2.55
2022-10-02T11:46:00.197Z,2.15
2022-10-02T11:47:18.112Z,2.15
2022-10-02T11:48:44.774Z,2.30
2022-10-02T11:50:08.409Z,2.42
2022-10-02T11:51:30.107Z,2.30
2022-10-02T11:52:48.416Z,2.63
2022-10-02T11:54:23.216Z,2.35
2022-10-02T11:55:33.883Z,2.47
2022-10-02T11:56:59.102Z,2.33
2022-10-02T11:58:13.153Z,2.33
2022-10-02T11:59:33.633Z,2.28
2022-10-02T12:01:13.240Z,2.10
2022-10-02T12:02:37.583Z,2.20
2022-10-02T12:04:01.703Z,2.10
2022-10-02T12:05:34.645Z,1.92
2022-10-02T12:06:48.170Z,1.77
2022-10-02T12:08:30.960Z,1.67
2022-10-02T12:09:58.968Z,1.77
2022-10-02T12:11:37.629Z,1.70
2022-10-02T12:12:58.735Z,1.75
2022-10-02T12:14:17.040Z,1.85
2022-10-02T12:15:50.441Z,1.73
2022-10-02T12:16:55.067Z,1.88
2022-10-02T12:18:19.466Z,1.67
2022-10-02T12:19:37.512Z,2.08
2022-10-02T12:21:06.746Z,1.60
2022-10-02T12:23:08.078Z,1.60
2022-10-02T12:24:36.482Z,1.50
2022-10-02T12:26:22.172Z,1.55
2022-10-02T12:27:39.747Z,2.10
2022-10-02T12:29:13.275Z,1.50
2022-10-02T12:31:55.785Z,1.60
2022-10-02T12:33:09.579Z,1.40
2022-10-02T12:34:24.361Z,1.50
2022-10-02T12:35:59.537Z,1.35
2022-10-02T12:37:38.645Z,1.40
2022-10-02T12:39:21.977Z,2.40
2022-10-02T12:40:31.837Z,2.55
2022-10-02T12:42:11.638Z,1.50
2022-10-02T12:44:39.242Z,1.48
2022-10-02T12:45:49.592Z,1.67
2022-10-02T12:47:11.261Z,1.40
2022-10-02T12:48:47.989Z,1.60
2022-10-02T12:50:17.263Z,1.48
2022-10-02T12:51:48.093Z,1.45
2022-10-02T12:53:27.294Z,1.40
2022-10-02T12:54:47.474Z,1.50
2022-10-02T12:56:36.310Z,1.50
2022-10-02T12:57:53.485Z,1.48
2022-10-02T12:59:11.997Z,1.45
2022-10-02T13:00:18.739Z,1.65
2022-10-02T13:01:37.784Z,1.30
2022-10-02T13:03:15.667Z,1.30
2022-10-02T13:04:26.599Z,1.42
2022-10-02T13:05:51.236Z,1.40
2022-10-02T13:07:14.720Z,1.30
2022-10-02T13:08:31.952Z,1.20
2022-10-02T13:09:55.108Z,1.20
2022-10-02T13:11:31.327Z,1.10
2022-10-02T13:13:04.736Z,1.10
2022-10-02T13:14:26.352Z,1.13
2022-10-02T13:15:42.414Z,1.10
2022-10-02T13:16:46.752Z,1.13
2022-10-02T13:18:02.908Z,1.10
2022-10-02T13:19:15.933Z,1.00
2022-10-02T13:20:41.890Z,1.00
2022-10-02T13:21:58.967Z,0.98
2022-10-02T13:23:22.245Z,0.90
2022-10-02T13:24:56.303Z,1.20
2022-10-02T13:26:30.407Z,0.80
2022-10-02T13:28:03.732Z,0.90
2022-10-02T13:29:33.014Z,0.80
2022-10-02T13:30:50.302Z,0.80
2022-10-02T13:32:16.367Z,0.88
2022-10-02T13:33:42.805Z,0.70
2022-10-02T13:35:14.705Z,0.73
2022-10-02T13:36:44.072Z,0.90
2022-10-02T13:38:28.864Z,1.42
2022-10-02T13:39:58.466Z,1.10
2022-10-02T13:41:35.521Z,0.80
2022-10-02T13:43:03.796Z,0.90
2022-10-02T13:44:12.464Z,0.82
2022-10-02T13:45:49.859Z,0.80
2022-10-02T13:46:57.606Z,0.80
2022-10-02T13:48:22.683Z,0.80
2022-10-02T13:49:54.097Z,1.00
2022-10-02T13:51:29.630Z,0.93
2022-10-02T13:53:09.098Z,0.90
2022-10-02T13:54:48.102Z,1.00
2022-10-02T13:56:04.068Z,0.80
2022-10-02T13:57:33.071Z,0.88
2022-10-02T13:59:02.181Z,0.82
2022-10-02T14:00:39.045Z,0.80
2022-10-02T14:02:01.667Z,0.80
2022-10-02T14:03:27.132Z,0.80
2022-10-02T14:04:50.941Z,0.90
2022-10-02T14:06:01.314Z,0.93
2022-10-02T14:07:15.216Z,0.80
2022-10-02T14:08:54.957Z,0.60
2022-10-02T14:11:50.414Z,0.70
2022-10-02T14:13:27.342Z,0.90
2022-10-02T14:14:38.023Z,0.77
2022-10-02T14:15:54.228Z,0.80
2022-10-02T14:17:18.632Z,0.73
2022-10-02T14:18:45.924Z,0.60
2022-10-02T14:20:03.288Z,0.80
2022-10-02T14:21:17.771Z,0.80
2022-10-02T14:22:35.331Z,0.73
2022-10-02T14:23:48.613Z,0.70
2022-10-02T14:25:13.330Z,0.82
2022-10-02T14:26:49.702Z,0.80
2022-10-02T14:28:06.826Z,0.70
2022-10-02T14:29:21.779Z,0.80
2022-10-02T14:30:41.152Z,0.70
2022-10-02T14:31:48.772Z,0.90
2022-10-02T14:33:08.136Z,0.70
2022-10-02T14:34:34.052Z,0.60
2022-10-02T14:35:57.357Z,0.60
2022-10-02T14:37:41.884Z,0.93
2022-10-02T14:38:49.690Z,0.90
2022-10-02T14:39:53.019Z,0.88
2022-10-02T14:40:57.191Z,0.80
2022-10-02T14:42:18.754Z,0.75
2022-10-02T14:43:51.931Z,0.90
2022-10-02T14:45:26.653Z,0.70
2022-10-02T14:46:51.837Z,0.80
2022-10-02T14:48:35.061Z,0.80
2022-10-02T14:49:49.635Z,0.82
2022-10-02T14:51:06.910Z,0.65
2022-10-02T14:52:22.690Z,0.80
2022-10-02T14:53:37.422Z,0.80
2022-10-02T14:55:09.819Z,0.80
2022-10-02T14:56:20.634Z,0.85
2022-10-02T14:57:48.037Z,0.70
2022-10-02T15:01:22.518Z,0.90
2022-10-02T15:02:34.599Z,0.80
2022-10-02T15:03:47.705Z,0.73
2022-10-02T15:05:14.110Z,0.70
2022-10-02T15:06:51.799Z,0.85
2022-10-02T15:07:54.132Z,0.80
2022-10-02T15:09:02.795Z,0.70
2022-10-02T15:10:21.984Z,0.70
2022-10-02T15:11:35.805Z,0.73
2022-10-02T15:12:43.983Z,0.80
2022-10-02T15:14:01.769Z,0.77
2022-10-02T15:15:15.294Z,0.80
2022-10-02T15:17:05.849Z,0.95
2022-10-02T15:18:38.555Z,0.80
2022-10-02T15:19:50.068Z,0.80
2022-10-02T15:21:01.803Z,0.75
2022-10-02T15:22:19.200Z,0.80
2022-10-02T15:23:48.570Z,0.73
2022-10-02T15:24:58.481Z,0.70
2022-10-02T15:26:37.535Z,0.70
2022-10-02T15:27:51.981Z,0.70
2022-10-02T15:29:11.595Z,0.80
2022-10-02T15:30:22.304Z,0.80
2022-10-02T15:31:44.215Z,0.70
2022-10-02T15:33:12.825Z,0.85
2022-10-02T15:34:32.224Z,0.85
2022-10-02T15:35:51.573Z,0.73
2022-10-02T15:37:04.707Z,0.90
2022-10-02T15:38:17.567Z,0.88
2022-10-02T15:39:34.810Z,0.80
2022-10-02T15:40:49.937Z,1.00
2022-10-02T15:42:04.506Z,0.90
2022-10-02T15:43:15.350Z,0.90
2022-10-02T15:44:39.776Z,1.00
2022-10-02T15:46:05.872Z,0.80
2022-10-02T15:47:35.661Z,1.05
2022-10-02T15:49:03.454Z,1.10
2022-10-02T15:50:32.759Z,1.00
2022-10-02T15:52:02.168Z,1.10
2022-10-02T15:53:47.731Z,0.95
2022-10-02T15:55:05.952Z,0.90
2022-10-02T15:56:40.466Z,0.93
2022-10-02T15:57:41.879Z,1.00
2022-10-02T15:59:08.846Z,1.05
2022-10-02T16:00:10.558Z,1.00
2022-10-02T16:01:44.326Z,1.02
2022-10-02T16:03:16.983Z,1.10
2022-10-02T16:04:33.972Z,1.25
2022-10-02T16:05:51.171Z,1.10
2022-10-02T16:07:11.405Z,1.10
2022-10-02T16:08:30.988Z,1.05
2022-10-02T16:09:58.171Z,1.23
2022-10-02T16:11:33.530Z,1.20
2022-10-02T16:13:12.884Z,1.00
2022-10-02T16:14:49.858Z,1.00
2022-10-02T16:16:17.693Z,1.10
2022-10-02T16:17:44.516Z,0.95
2022-10-02T16:19:23.743Z,1.08
2022-10-02T16:20:31.177Z,0.90
2022-10-02T16:21:39.162Z,1.15
2022-10-02T16:23:01.556Z,1.08
2022-10-02T16:24:21.936Z,1.23
2022-10-02T16:26:03.243Z,1.10
2022-10-02T16:27:23.212Z,1.17
2022-10-02T16:28:46.525Z,1.10
2022-10-02T16:30:13.394Z,1.20
2022-10-02T16:31:43.677Z,1.10
2022-10-02T16:33:19.010Z,1.23
2022-10-02T16:34:51.333Z,1.20
2022-10-02T16:36:14.101Z,1.27
2022-10-02T16:37:26.624Z,1.30
2022-10-02T16:38:47.645Z,1.10
2022-10-02T16:40:03.156Z,1.40
2022-10-02T16:41:15.282Z,1.20
2022-10-02T16:42:48.563Z,1.58
2022-10-02T16:43:58.816Z,1.20
2022-10-02T16:45:18.746Z,1.55
2022-10-02T16:46:32.449Z,1.27
2022-10-02T16:47:53.414Z,1.40
2022-10-02T16:49:02.450Z,1.17
2022-10-02T16:51:28.806Z,1.00
2022-10-02T16:52:38.190Z,1.45
2022-10-02T16:54:08.562Z,1.50
2022-10-02T16:55:30.853Z,1.58
2022-10-02T16:56:54.324Z,1.20
2022-10-02T16:58:07.522Z,1.27
2022-10-02T16:59:25.557Z,1.20
2022-10-02T17:00:34.168Z,1.40
2022-10-02T17:01:59.515Z,1.50
2022-10-02T17:03:32.611Z,1.30
2022-10-02T17:04:46.480Z,1.40
2022-10-02T17:06:04.107Z,1.38
2022-10-02T17:07:14.783Z,1.20
2022-10-02T17:08:23.354Z,1.48
2022-10-02T17:09:39.078Z,1.38
2022-10-02T17:11:06.713Z,1.30
2022-10-02T17:12:24.488Z,1.48
2022-10-02T17:13:49.668Z,1.48
2022-10-02T17:15:03.446Z,1.25
2022-10-02T17:16:11.659Z,1.52
2022-10-02T17:17:29.079Z,1.40
2022-10-02T17:18:41.617Z,1.50
2022-10-02T17:20:01.605Z,1.40
2022-10-02T17:21:21.752Z,1.30
2022-10-02T17:22:38.032Z,1.45
2022-10-02T17:23:42.709Z,1.58
2022-10-02T17:24:53.993Z,1.42
2022-10-02T17:26:19.224Z,1.40
2022-10-02T17:27:32.692Z,1.48
2022-10-02T17:29:13.111Z,1.65
2022-10-02T17:30:15.009Z,1.50
2022-10-02T17:31:34.660Z,1.40
2022-10-02T17:32:51.611Z,1.48
2022-10-02T17:34:00.636Z,1.20
2022-10-02T17:36:31.390Z,1.30
2022-10-02T17:38:25.746Z,1.20
2022-10-02T17:39:46.333Z,1.20
2022-10-02T17:40:57.125Z,1.55
2022-10-02T17:42:20.121Z,1.30
2022-10-02T17:43:37.450Z,1.50
2022-10-02T17:44:47.904Z,1.40
2022-10-02T17:46:11.396Z,1.30
2022-10-02T17:47:32.093Z,1.45
2022-10-02T17:49:03.890Z,1.70
2022-10-02T17:50:19.798Z,1.50
2022-10-02T17:53:37.294Z,1.45
2022-10-02T17:55:22.460Z,1.67